sensor_id;sensor_type;location;lat;lon;timestamp;temperature;humidity
37158;DHT22;23050;51.776;22.638;2022-11-14T13:12:33;8.10;99.90
37158;DHT22;23050;51.776;22.638;2022-11-14T13:15:36;8.00;99.90
37158;DHT22;23050;51.776;22.638;2022-11-14T13:18:29;8.00;99.90
37158;DHT22;23050;51.776;22.638;2022-11-14T13:21:23;8.00;99.90
37158;DHT22;23050;51.776;22.638;2022-11-14T13:24:07;8.00;99.90
37158;DHT22;23050;51.776;22.638;2022-11-14T13:26:38;8.00;99.90
37158;DHT22;23050;51.776;22.638;2022-11-14T13:29:05;8.00;99.90
37158;DHT22;23050;51.776;22.638;2022-11-14T13:34:00;8.00;99.90
37158;DHT22;23050;51.776;22.638;2022-11-14T13:37:19;8.00;99.90
37158;DHT22;23050;51.776;22.638;2022-11-14T13:42:53;8.00;99.90
37158;DHT22;23050;51.776;22.638;2022-11-14T13:50:56;7.90;99.90
37158;DHT22;23050;51.776;22.638;2022-11-14T13:53:26;8.00;99.90
37158;DHT22;23050;51.776;22.638;2022-11-14T14:12:13;7.80;99.90
37158;DHT22;23050;51.776;22.638;2022-11-14T14:17:31;7.80;99.90
37158;DHT22;23050;51.776;22.638;2022-11-14T14:23:01;7.70;99.90
37158;DHT22;23050;51.776;22.638;2022-11-14T14:25:50;7.70;99.90
37158;DHT22;23050;51.776;22.638;2022-11-14T14:33:45;7.60;99.90
37158;DHT22;23050;51.776;22.638;2022-11-14T14:36:22;7.60;99.90
37158;DHT22;23050;51.776;22.638;2022-11-14T14:38:50;7.60;99.90
37158;DHT22;23050;51.776;22.638;2022-11-14T14:41:31;7.60;99.90
37158;DHT22;23050;51.776;22.638;2022-11-14T14:43:56;7.60;99.90
37158;DHT22;23050;51.776;22.638;2022-11-14T14:46:28;7.60;99.90
37158;DHT22;23050;51.776;22.638;2022-11-14T14:48:57;7.60;99.90
37158;DHT22;23050;51.776;22.638;2022-11-14T14:51:34;7.50;99.90
37158;DHT22;23050;51.776;22.638;2022-11-14T14:54:01;7.50;99.90
37158;DHT22;23050;51.776;22.638;2022-11-14T14:56:27;7.50;99.90
37158;DHT22;23050;51.776;22.638;2022-11-14T14:58:56;7.50;99.90
37158;DHT22;23050;51.776;22.638;2022-11-14T15:01:33;7.60;99.90
37158;DHT22;23050;51.776;22.638;2022-11-14T15:04:07;7.50;99.90
37158;DHT22;23050;51.776;22.638;2022-11-14T15:06:38;7.50;99.90
37158;DHT22;23050;51.776;22.638;2022-11-14T15:09:10;7.50;99.90
37158;DHT22;23050;51.776;22.638;2022-11-14T15:11:43;7.50;99.90
37158;DHT22;23050;51.776;22.638;2022-11-14T15:14:16;7.60;99.90
37158;DHT22;23050;51.776;22.638;2022-11-14T15:16:43;7.60;99.90
37158;DHT22;23050;51.776;22.638;2022-11-14T15:19:17;7.50;99.90
37158;DHT22;23050;51.776;22.638;2022-11-14T15:21:44;7.50;99.90
37158;DHT22;23050;51.776;22.638;2022-11-14T15:24:18;7.60;99.90
37158;DHT22;23050;51.776;22.638;2022-11-14T15:26:49;7.60;99.90
37158;DHT22;23050;51.776;22.638;2022-11-14T15:29:16;7.50;99.90
37158;DHT22;23050;51.776;22.638;2022-11-14T15:32:15;7.50;99.90
37158;DHT22;23050;51.776;22.638;2022-11-14T15:34:42;7.50;99.90
37158;DHT22;23050;51.776;22.638;2022-11-14T15:39:42;7.50;99.90
37158;DHT22;23050;51.776;22.638;2022-11-14T15:44:57;7.50;99.90
37158;DHT22;23050;51.776;22.638;2022-11-14T15:47:32;7.50;99.90
37158;DHT22;23050;51.776;22.638;2022-11-14T15:52:31;7.40;99.90
37158;DHT22;23050;51.776;22.638;2022-11-14T15:55:01;7.40;99.90
37158;DHT22;23050;51.776;22.638;2022-11-14T15:57:33;7.40;99.90
37158;DHT22;23050;51.776;22.638;2022-11-14T15:59:59;7.40;99.90
37158;DHT22;23050;51.776;22.638;2022-11-14T16:02:30;7.30;99.90
37158;DHT22;23050;51.776;22.638;2022-11-14T16:04:57;7.40;99.90
37158;DHT22;23050;51.776;22.638;2022-11-14T16:07:24;7.40;99.90
37158;DHT22;23050;51.776;22.638;2022-11-14T16:09:49;7.40;99.90
37158;DHT22;23050;51.776;22.638;2022-11-14T16:12:17;7.40;99.90
37158;DHT22;23050;51.776;22.638;2022-11-14T16:14:42;7.30;99.90
37158;DHT22;23050;51.776;22.638;2022-11-14T16:17:14;7.40;99.90
37158;DHT22;23050;51.776;22.638;2022-11-14T16:19:41;7.30;99.90
37158;DHT22;23050;51.776;22.638;2022-11-14T16:22:16;7.40;99.90
37158;DHT22;23050;51.776;22.638;2022-11-14T16:24:42;7.40;99.90
37158;DHT22;23050;51.776;22.638;2022-11-14T16:27:08;7.40;99.90
37158;DHT22;23050;51.776;22.638;2022-11-14T16:29:33;7.30;99.90
37158;DHT22;23050;51.776;22.638;2022-11-14T16:32:00;7.40;99.90
37158;DHT22;23050;51.776;22.638;2022-11-14T16:34:26;7.30;99.90
37158;DHT22;23050;51.776;22.638;2022-11-14T16:37:00;7.40;99.90
37158;DHT22;23050;51.776;22.638;2022-11-14T16:39:26;7.40;99.90
37158;DHT22;23050;51.776;22.638;2022-11-14T16:41:52;7.40;99.90
37158;DHT22;23050;51.776;22.638;2022-11-14T16:44:17;7.40;99.90
37158;DHT22;23050;51.776;22.638;2022-11-14T16:46:45;7.40;99.90
37158;DHT22;23050;51.776;22.638;2022-11-14T16:49:13;7.40;99.90
37158;DHT22;23050;51.776;22.638;2022-11-14T16:51:39;7.40;99.90
37158;DHT22;23050;51.776;22.638;2022-11-14T16:54:06;7.30;99.90
37158;DHT22;23050;51.776;22.638;2022-11-14T16:56:31;7.30;99.90
37158;DHT22;23050;51.776;22.638;2022-11-14T16:58:57;7.30;99.90
37158;DHT22;23050;51.776;22.638;2022-11-14T17:01:23;7.30;99.90
37158;DHT22;23050;51.776;22.638;2022-11-14T17:04:02;7.30;99.90
37158;DHT22;23050;51.776;22.638;2022-11-14T17:06:28;7.40;99.90
37158;DHT22;23050;51.776;22.638;2022-11-14T17:08:55;7.40;99.90
37158;DHT22;23050;51.776;22.638;2022-11-14T17:11:21;7.30;99.90
37158;DHT22;23050;51.776;22.638;2022-11-14T17:13:47;7.30;99.90
37158;DHT22;23050;51.776;22.638;2022-11-14T17:16:12;7.30;99.90
37158;DHT22;23050;51.776;22.638;2022-11-14T17:18:38;7.30;99.90
37158;DHT22;23050;51.776;22.638;2022-11-14T17:21:09;7.30;99.90
37158;DHT22;23050;51.776;22.638;2022-11-14T17:23:35;7.30;99.90
37158;DHT22;23050;51.776;22.638;2022-11-14T17:26:03;7.30;99.90
37158;DHT22;23050;51.776;22.638;2022-11-14T17:28:28;7.30;99.90
37158;DHT22;23050;51.776;22.638;2022-11-14T17:30:54;7.20;99.90
37158;DHT22;23050;51.776;22.638;2022-11-14T17:33:20;7.30;99.90
37158;DHT22;23050;51.776;22.638;2022-11-14T17:35:45;7.30;99.90
37158;DHT22;23050;51.776;22.638;2022-11-14T17:38:11;7.20;99.90
37158;DHT22;23050;51.776;22.638;2022-11-14T17:40:36;7.20;99.90
37158;DHT22;23050;51.776;22.638;2022-11-14T17:43:02;7.20;99.90
37158;DHT22;23050;51.776;22.638;2022-11-14T17:45:27;7.30;99.90
37158;DHT22;23050;51.776;22.638;2022-11-14T17:47:53;7.30;99.90
37158;DHT22;23050;51.776;22.638;2022-11-14T17:50:19;7.20;99.90
37158;DHT22;23050;51.776;22.638;2022-11-14T17:52:44;7.20;99.90
37158;DHT22;23050;51.776;22.638;2022-11-14T17:55:10;7.20;99.90
37158;DHT22;23050;51.776;22.638;2022-11-14T17:57:35;7.20;99.90
37158;DHT22;23050;51.776;22.638;2022-11-14T18:00:01;7.20;99.90
37158;DHT22;23050;51.776;22.638;2022-11-14T18:02:28;7.20;99.90
37158;DHT22;23050;51.776;22.638;2022-11-14T18:04:53;7.20;99.90
37158;DHT22;23050;51.776;22.638;2022-11-14T18:07:19;7.20;99.90
37158;DHT22;23050;51.776;22.638;2022-11-14T18:09:45;7.20;99.90
37158;DHT22;23050;51.776;22.638;2022-11-14T18:12:11;7.10;99.90
37158;DHT22;23050;51.776;22.638;2022-11-14T18:14:37;7.10;99.90
37158;DHT22;23050;51.776;22.638;2022-11-14T18:17:02;7.10;99.90
37158;DHT22;23050;51.776;22.638;2022-11-14T18:19:28;7.10;99.90
37158;DHT22;23050;51.776;22.638;2022-11-14T18:21:54;7.10;99.90
37158;DHT22;23050;51.776;22.638;2022-11-14T18:24:19;7.00;99.90
37158;DHT22;23050;51.776;22.638;2022-11-14T18:26:46;7.00;99.90
37158;DHT22;23050;51.776;22.638;2022-11-14T18:29:11;7.00;99.90
37158;DHT22;23050;51.776;22.638;2022-11-14T18:31:40;7.00;99.90
37158;DHT22;23050;51.776;22.638;2022-11-14T18:34:05;7.00;99.90
37158;DHT22;23050;51.776;22.638;2022-11-14T18:36:31;7.00;99.90
37158;DHT22;23050;51.776;22.638;2022-11-14T18:38:56;7.00;99.90
37158;DHT22;23050;51.776;22.638;2022-11-14T18:41:22;7.00;99.90
37158;DHT22;23050;51.776;22.638;2022-11-14T18:43:48;7.00;99.90
37158;DHT22;23050;51.776;22.638;2022-11-14T18:46:20;7.00;99.90
37158;DHT22;23050;51.776;22.638;2022-11-14T18:48:52;6.90;99.90
37158;DHT22;23050;51.776;22.638;2022-11-14T18:51:23;6.90;99.90
37158;DHT22;23050;51.776;22.638;2022-11-14T18:53:49;6.90;99.90
37158;DHT22;23050;51.776;22.638;2022-11-14T18:56:19;6.90;99.90
37158;DHT22;23050;51.776;22.638;2022-11-14T18:58:45;6.90;99.90
37158;DHT22;23050;51.776;22.638;2022-11-14T19:01:16;6.90;99.90
37158;DHT22;23050;51.776;22.638;2022-11-14T19:03:46;6.90;99.90
37158;DHT22;23050;51.776;22.638;2022-11-14T19:06:12;6.90;99.90
37158;DHT22;23050;51.776;22.638;2022-11-14T19:08:39;6.90;99.90
37158;DHT22;23050;51.776;22.638;2022-11-14T19:11:07;6.90;99.90
37158;DHT22;23050;51.776;22.638;2022-11-14T19:13:33;6.90;99.90
37158;DHT22;23050;51.776;22.638;2022-11-14T19:16:06;6.90;99.90
37158;DHT22;23050;51.776;22.638;2022-11-14T19:18:31;6.90;99.90
37158;DHT22;23050;51.776;22.638;2022-11-14T19:21:01;6.90;99.90
37158;DHT22;23050;51.776;22.638;2022-11-14T19:23:27;6.80;99.90
37158;DHT22;23050;51.776;22.638;2022-11-14T19:25:59;6.80;99.90
37158;DHT22;23050;51.776;22.638;2022-11-14T19:28:26;6.80;99.90
37158;DHT22;23050;51.776;22.638;2022-11-14T19:30:53;6.80;99.90
37158;DHT22;23050;51.776;22.638;2022-11-14T19:33:24;6.80;99.90
37158;DHT22;23050;51.776;22.638;2022-11-14T19:35:51;6.80;99.90
37158;DHT22;23050;51.776;22.638;2022-11-14T19:38:16;6.80;99.90
37158;DHT22;23050;51.776;22.638;2022-11-14T19:40:42;6.70;99.90
37158;DHT22;23050;51.776;22.638;2022-11-14T19:43:10;6.80;99.90
37158;DHT22;23050;51.776;22.638;2022-11-14T19:45:35;6.80;99.90
37158;DHT22;23050;51.776;22.638;2022-11-14T19:48:01;6.80;99.90
37158;DHT22;23050;51.776;22.638;2022-11-14T19:50:27;6.80;99.90
37158;DHT22;23050;51.776;22.638;2022-11-14T19:52:53;6.90;99.90
37158;DHT22;23050;51.776;22.638;2022-11-14T19:55:18;6.80;99.90
37158;DHT22;23050;51.776;22.638;2022-11-14T19:57:44;6.80;99.90
37158;DHT22;23050;51.776;22.638;2022-11-14T20:00:10;6.80;99.90
37158;DHT22;23050;51.776;22.638;2022-11-14T20:02:36;6.80;99.90
37158;DHT22;23050;51.776;22.638;2022-11-14T20:05:06;6.80;99.90
37158;DHT22;23050;51.776;22.638;2022-11-14T20:07:32;6.80;99.90
37158;DHT22;23050;51.776;22.638;2022-11-14T20:10:00;6.80;99.90
37158;DHT22;23050;51.776;22.638;2022-11-14T20:12:26;6.90;99.90
37158;DHT22;23050;51.776;22.638;2022-11-14T20:14:51;6.70;99.90
37158;DHT22;23050;51.776;22.638;2022-11-14T20:17:17;6.80;99.90
37158;DHT22;23050;51.776;22.638;2022-11-14T20:19:42;6.80;99.90
37158;DHT22;23050;51.776;22.638;2022-11-14T20:22:08;6.80;99.90
37158;DHT22;23050;51.776;22.638;2022-11-14T20:24:34;6.80;99.90
37158;DHT22;23050;51.776;22.638;2022-11-14T20:27:00;6.70;99.90
37158;DHT22;23050;51.776;22.638;2022-11-14T20:29:25;6.80;99.90
37158;DHT22;23050;51.776;22.638;2022-11-14T20:31:51;6.80;99.90
37158;DHT22;23050;51.776;22.638;2022-11-14T20:34:16;6.80;99.90
37158;DHT22;23050;51.776;22.638;2022-11-14T20:36:42;6.80;99.90
37158;DHT22;23050;51.776;22.638;2022-11-14T20:39:08;6.80;99.90
37158;DHT22;23050;51.776;22.638;2022-11-14T20:41:33;6.80;99.90
37158;DHT22;23050;51.776;22.638;2022-11-14T20:44:00;6.80;99.90
37158;DHT22;23050;51.776;22.638;2022-11-14T20:46:29;6.80;99.90
37158;DHT22;23050;51.776;22.638;2022-11-14T20:48:55;6.80;99.90
37158;DHT22;23050;51.776;22.638;2022-11-14T20:51:23;6.80;99.90
37158;DHT22;23050;51.776;22.638;2022-11-14T20:53:50;6.80;99.90
37158;DHT22;23050;51.776;22.638;2022-11-14T20:56:16;6.80;99.90
37158;DHT22;23050;51.776;22.638;2022-11-14T20:58:43;6.80;99.90
37158;DHT22;23050;51.776;22.638;2022-11-14T21:01:10;6.70;99.90
37158;DHT22;23050;51.776;22.638;2022-11-14T21:03:36;6.70;99.90
37158;DHT22;23050;51.776;22.638;2022-11-14T21:06:02;6.70;99.90
37158;DHT22;23050;51.776;22.638;2022-11-14T21:08:29;6.70;99.90
37158;DHT22;23050;51.776;22.638;2022-11-14T21:11:01;6.70;99.90
37158;DHT22;23050;51.776;22.638;2022-11-14T21:13:27;6.70;99.90
37158;DHT22;23050;51.776;22.638;2022-11-14T21:16:16;6.70;99.90
37158;DHT22;23050;51.776;22.638;2022-11-14T21:18:43;6.70;99.90
37158;DHT22;23050;51.776;22.638;2022-11-14T21:21:11;6.70;99.90
37158;DHT22;23050;51.776;22.638;2022-11-14T21:23:37;6.70;99.90
37158;DHT22;23050;51.776;22.638;2022-11-14T21:28:32;6.70;99.90
37158;DHT22;23050;51.776;22.638;2022-11-14T21:30:58;6.70;99.90
37158;DHT22;23050;51.776;22.638;2022-11-14T21:33:29;6.70;99.90
37158;DHT22;23050;51.776;22.638;2022-11-14T21:35:56;6.70;99.90
37158;DHT22;23050;51.776;22.638;2022-11-14T21:38:22;6.70;99.90
37158;DHT22;23050;51.776;22.638;2022-11-14T21:40:54;6.70;99.90
37158;DHT22;23050;51.776;22.638;2022-11-14T21:43:21;6.70;99.90
37158;DHT22;23050;51.776;22.638;2022-11-14T21:46:00;6.70;99.90
37158;DHT22;23050;51.776;22.638;2022-11-14T21:48:32;6.70;99.90
37158;DHT22;23050;51.776;22.638;2022-11-14T21:51:18;6.70;99.90
37158;DHT22;23050;51.776;22.638;2022-11-14T21:53:47;6.70;99.90
37158;DHT22;23050;51.776;22.638;2022-11-14T21:56:20;6.70;99.90
37158;DHT22;23050;51.776;22.638;2022-11-14T21:58:47;6.70;99.90
37158;DHT22;23050;51.776;22.638;2022-11-14T22:01:15;6.70;99.90
37158;DHT22;23050;51.776;22.638;2022-11-14T22:04:02;6.70;99.90
37158;DHT22;23050;51.776;22.638;2022-11-14T22:06:36;6.70;99.90
37158;DHT22;23050;51.776;22.638;2022-11-14T22:09:02;6.60;99.90
